createdAt,value
2017-08-30T00:01:10.178Z,99775.09
2017-08-30T00:03:36.307Z,99768.88
2017-08-30T00:06:02.387Z,99775.78
2017-08-30T00:08:28.462Z,99756.71
2017-08-30T00:10:54.542Z,99759.59
2017-08-30T00:13:20.601Z,99756.52
2017-08-30T00:15:46.721Z,99758.80
2017-08-30T00:18:12.796Z,99763.67
2017-08-30T00:20:38.879Z,99756.23
2017-08-30T00:23:05.008Z,99764.50
2017-08-30T00:28:35.569Z,99757.28
2017-08-30T00:31:01.679Z,99752.23
2017-08-30T00:33:27.759Z,99751.06
2017-08-30T00:35:53.891Z,99748.28
2017-08-30T00:38:19.967Z,99747.01
2017-08-30T00:40:46.035Z,99750.03
2017-08-30T00:43:12.127Z,99748.13
2017-08-30T00:45:38.205Z,99752.26
2017-08-30T00:48:04.325Z,99755.17
2017-08-30T00:50:30.422Z,99757.00
2017-08-30T00:52:56.512Z,99747.77
2017-08-30T00:55:22.594Z,99749.11
2017-08-30T00:57:48.707Z,99746.65
2017-08-30T01:00:14.775Z,99744.58
2017-08-30T01:02:40.834Z,99736.69
2017-08-30T01:05:06.948Z,99739.49
2017-08-30T01:07:33.034Z,99739.91
2017-08-30T01:09:59.100Z,99737.31
2017-08-30T01:12:25.184Z,99740.08
2017-08-30T01:14:51.261Z,99737.73
2017-08-30T01:17:17.386Z,99737.11
2017-08-30T01:19:43.485Z,99735.19
2017-08-30T01:22:09.582Z,99738.70
2017-08-30T01:24:35.676Z,99734.96
2017-08-30T01:27:01.783Z,99732.05
2017-08-30T01:29:27.836Z,99732.27
2017-08-30T01:31:54.047Z,99726.12
2017-08-30T01:34:20.147Z,99733.98
2017-08-30T01:36:46.236Z,99726.81
2017-08-30T01:39:12.355Z,99730.12
2017-08-30T01:41:39.443Z,99725.75
2017-08-30T01:44:05.533Z,99728.97
2017-08-30T01:46:31.604Z,99731.23
2017-08-30T01:48:57.684Z,99721.06
2017-08-30T01:51:23.745Z,99726.23
2017-08-30T01:53:49.825Z,99720.95
2017-08-30T01:56:15.916Z,99726.07
2017-08-30T01:58:41.995Z,99728.23
2017-08-30T02:01:08.082Z,99724.52
2017-08-30T02:03:34.177Z,99728.30
2017-08-30T02:06:00.267Z,99728.39
2017-08-30T02:08:26.397Z,99727.91
2017-08-30T02:10:52.470Z,99729.67
2017-08-30T02:13:18.519Z,99722.66
2017-08-30T02:15:44.629Z,99728.56
2017-08-30T02:18:10.705Z,99726.70
2017-08-30T02:20:36.783Z,99726.37
2017-08-30T02:23:02.867Z,99722.08
2017-08-30T02:25:28.921Z,99722.83
2017-08-30T02:27:55.028Z,99718.25
2017-08-30T02:30:21.105Z,99720.64
2017-08-30T02:32:47.174Z,99713.87
2017-08-30T02:35:13.225Z,99713.63
2017-08-30T02:37:39.333Z,99710.31
2017-08-30T02:40:05.417Z,99709.55
2017-08-30T02:42:31.517Z,99715.41
2017-08-30T02:44:57.675Z,99711.11
2017-08-30T02:47:23.770Z,99707.56
2017-08-30T02:49:49.907Z,99711.78
2017-08-30T02:52:16.001Z,99715.05
2017-08-30T02:54:42.078Z,99714.20
2017-08-30T02:57:08.314Z,99705.63
2017-08-30T02:59:34.363Z,99709.16
2017-08-30T03:02:00.416Z,99709.66
2017-08-30T03:04:26.519Z,99705.69
2017-08-30T03:06:52.617Z,99712.02
2017-08-30T03:09:18.727Z,99712.97
2017-08-30T03:11:44.818Z,99707.35
2017-08-30T03:14:10.893Z,99704.20
2017-08-30T03:16:37.696Z,99697.72
2017-08-30T03:19:03.779Z,99700.94
2017-08-30T03:21:29.864Z,99702.05
2017-08-30T03:23:55.938Z,99710.45
2017-08-30T03:26:22.006Z,99710.84
2017-08-30T03:28:48.084Z,99706.98
2017-08-30T03:31:14.159Z,99709.45
2017-08-30T03:33:40.241Z,99704.73
2017-08-30T03:36:06.328Z,99711.95
2017-08-30T03:38:32.431Z,99709.73
2017-08-30T03:40:58.512Z,99716.97
2017-08-30T03:43:24.596Z,99714.64
2017-08-30T03:45:50.675Z,99712.44
2017-08-30T03:48:16.814Z,99711.36
2017-08-30T03:50:42.898Z,99710.08
2017-08-30T03:53:08.966Z,99713.09
2017-08-30T03:55:35.069Z,99714.66
2017-08-30T03:58:01.468Z,99712.59
2017-08-30T04:00:27.594Z,99714.95
2017-08-30T04:02:53.673Z,99714.33
2017-08-30T04:05:19.795Z,99712.98
2017-08-30T04:07:45.872Z,99721.28
2017-08-30T04:10:11.952Z,99722.57
2017-08-30T04:12:38.007Z,99712.55
2017-08-30T04:15:04.115Z,99717.61
2017-08-30T04:17:30.207Z,99716.58
2017-08-30T04:19:56.266Z,99715.80
2017-08-30T04:22:22.383Z,99715.30
2017-08-30T04:24:48.477Z,99717.38
2017-08-30T04:27:14.536Z,99721.04
2017-08-30T04:29:40.655Z,99722.72
2017-08-30T04:32:06.742Z,99720.86
2017-08-30T04:34:32.818Z,99725.63
2017-08-30T04:36:58.922Z,99722.41
2017-08-30T04:39:24.980Z,99719.92
2017-08-30T04:41:51.087Z,99729.76
2017-08-30T04:44:17.147Z,99724.57
2017-08-30T04:46:43.272Z,99726.99
2017-08-30T04:49:09.362Z,99721.44
2017-08-30T04:51:35.469Z,99720.84
2017-08-30T04:54:01.599Z,99725.05
2017-08-30T04:56:27.692Z,99726.73
2017-08-30T04:58:53.780Z,99730.61
2017-08-30T05:01:19.988Z,99723.88
2017-08-30T05:03:46.102Z,99725.90
2017-08-30T05:06:12.251Z,99724.20
2017-08-30T05:08:38.322Z,99718.50
2017-08-30T05:11:04.388Z,99718.73
2017-08-30T05:13:30.534Z,99726.59
2017-08-30T05:15:56.644Z,99722.72
2017-08-30T05:18:22.786Z,99715.06
2017-08-30T05:20:48.888Z,99718.70
2017-08-30T05:23:15.011Z,99715.27
2017-08-30T05:25:41.135Z,99719.53
2017-08-30T05:28:07.282Z,99715.22
2017-08-30T05:30:33.387Z,99710.78
2017-08-30T05:32:59.483Z,99718.04
2017-08-30T05:35:25.540Z,99715.91
2017-08-30T05:37:51.665Z,99718.61
2017-08-30T05:40:17.773Z,99714.14
2017-08-30T05:42:43.844Z,99715.75
2017-08-30T05:45:09.990Z,99710.13
2017-08-30T05:47:36.068Z,99712.44
2017-08-30T05:50:02.192Z,99712.97
2017-08-30T05:52:28.328Z,99710.59
2017-08-30T05:54:54.451Z,99722.73
2017-08-30T05:57:20.552Z,99719.09
2017-08-30T05:59:46.703Z,99721.59
2017-08-30T06:02:12.843Z,99717.73
2017-08-30T06:04:38.920Z,99722.29
2017-08-30T06:07:05.023Z,99719.70
2017-08-30T06:09:31.161Z,99715.61
2017-08-30T06:11:57.264Z,99717.03
2017-08-30T06:14:23.362Z,99726.03
2017-08-30T06:16:49.442Z,99709.31
2017-08-30T06:19:15.544Z,99723.09
2017-08-30T06:21:41.717Z,99712.27
2017-08-30T06:24:07.867Z,99716.39
2017-08-30T06:26:33.946Z,99712.48
2017-08-30T06:29:00.122Z,99715.62
2017-08-30T06:31:26.239Z,99715.44
2017-08-30T06:33:52.358Z,99709.09
2017-08-30T06:36:18.496Z,99710.29
2017-08-30T06:38:44.556Z,99711.75
2017-08-30T06:41:10.646Z,99701.67
2017-08-30T06:43:36.744Z,99702.23
2017-08-30T06:46:02.814Z,99705.42
2017-08-30T06:48:28.972Z,99710.61
2017-08-30T06:50:55.066Z,99709.13
2017-08-30T06:53:22.111Z,99712.33
2017-08-30T06:55:48.193Z,99710.27
2017-08-30T06:58:14.264Z,99704.41
2017-08-30T07:00:40.377Z,99703.14
2017-08-30T07:03:06.443Z,99699.24
2017-08-30T07:05:32.545Z,99702.47
2017-08-30T07:07:58.646Z,99695.92
2017-08-30T07:10:24.921Z,99702.76
2017-08-30T07:12:50.986Z,99701.49
2017-08-30T07:15:17.067Z,99706.91
2017-08-30T07:17:43.202Z,99697.53
2017-08-30T07:20:09.271Z,99702.72
2017-08-30T07:22:35.338Z,99703.01
2017-08-30T07:25:01.417Z,99706.31
2017-08-30T07:27:27.493Z,99703.78
2017-08-30T07:29:53.581Z,99700.45
2017-08-30T07:32:19.743Z,99703.05
2017-08-30T07:34:45.838Z,99713.16
2017-08-30T07:37:11.942Z,99711.73
2017-08-30T07:39:38.038Z,99710.66
2017-08-30T07:42:04.117Z,99708.47
2017-08-30T07:44:30.208Z,99706.28
2017-08-30T07:46:56.363Z,99704.33
2017-08-30T07:49:22.432Z,99709.66
2017-08-30T07:51:48.524Z,99704.02
2017-08-30T07:54:14.649Z,99700.80
2017-08-30T07:56:40.745Z,99697.29
2017-08-30T07:59:06.839Z,99696.14
2017-08-30T08:01:32.956Z,99697.70
2017-08-30T08:03:59.330Z,99697.08
2017-08-30T08:06:25.423Z,99694.63
2017-08-30T08:08:51.515Z,99699.13
2017-08-30T08:11:17.601Z,99701.23
2017-08-30T08:13:43.695Z,99707.63
2017-08-30T08:16:09.834Z,99703.66
2017-08-30T08:18:35.919Z,99698.09
2017-08-30T08:21:02.045Z,99698.56
2017-08-30T08:23:28.166Z,99697.27
2017-08-30T08:25:54.214Z,99701.34
2017-08-30T08:28:20.333Z,99705.97
2017-08-30T08:30:46.399Z,99694.25
2017-08-30T08:33:12.473Z,99702.97
2017-08-30T08:35:38.572Z,99693.90
2017-08-30T08:38:04.635Z,99697.52
2017-08-30T08:40:30.755Z,99688.91
2017-08-30T08:42:56.887Z,99686.12
2017-08-30T08:45:22.987Z,99681.37
2017-08-30T08:47:49.054Z,99669.38
2017-08-30T08:50:15.137Z,99675.95
2017-08-30T08:52:41.259Z,99669.26
2017-08-30T08:55:07.347Z,99670.64
2017-08-30T08:57:33.429Z,99671.30
2017-08-30T08:59:59.540Z,99666.85
2017-08-30T09:02:25.665Z,99668.62
2017-08-30T09:04:51.704Z,99662.70
2017-08-30T09:07:17.815Z,99665.33
2017-08-30T09:09:43.901Z,99660.73
2017-08-30T09:12:10.015Z,99659.36
2017-08-30T09:14:36.075Z,99667.56
2017-08-30T09:17:02.138Z,99668.45
2017-08-30T09:19:28.260Z,99667.47
2017-08-30T09:21:54.511Z,99669.84
2017-08-30T09:24:20.598Z,99667.81
2017-08-30T09:26:46.702Z,99665.70
2017-08-30T09:29:12.797Z,99666.05
2017-08-30T09:31:38.879Z,99651.02
2017-08-30T09:34:04.980Z,99644.55
2017-08-30T09:36:31.071Z,99639.47
2017-08-30T09:38:57.175Z,99643.52
2017-08-30T09:41:23.285Z,99648.00
2017-08-30T09:43:49.379Z,99631.91
2017-08-30T09:46:15.464Z,99629.84
2017-08-30T09:48:41.587Z,99630.77
2017-08-30T09:51:07.717Z,99624.85
2017-08-30T09:53:33.800Z,99623.61
2017-08-30T09:55:59.900Z,99611.62
2017-08-30T09:58:26.029Z,99609.02
2017-08-30T10:00:52.083Z,99610.81
2017-08-30T10:03:18.154Z,99611.00
2017-08-30T10:05:44.269Z,99613.22
2017-08-30T10:08:10.338Z,99605.30
2017-08-30T10:10:36.429Z,99607.75
2017-08-30T10:13:02.545Z,99609.27
2017-08-30T10:15:28.645Z,99606.13
2017-08-30T10:17:54.704Z,99603.52
2017-08-30T10:20:20.913Z,99605.58
2017-08-30T10:22:47.008Z,99592.95
2017-08-30T10:25:13.124Z,99591.75
2017-08-30T10:27:39.250Z,99584.75
2017-08-30T10:30:05.338Z,99586.23
2017-08-30T10:32:31.430Z,99581.56
2017-08-30T10:34:57.512Z,99574.02
2017-08-30T10:37:23.579Z,99575.63
2017-08-30T10:39:49.722Z,99568.75
2017-08-30T10:42:15.809Z,99563.52
2017-08-30T10:44:41.875Z,99558.50
2017-08-30T10:47:07.986Z,99552.55
2017-08-30T10:49:34.091Z,99550.22
2017-08-30T10:52:00.170Z,99545.76
2017-08-30T10:54:26.260Z,99540.77
2017-08-30T10:56:52.358Z,99553.20
2017-08-30T10:59:18.480Z,99541.58
2017-08-30T11:01:44.590Z,99543.03
2017-08-30T11:04:10.694Z,99544.59
2017-08-30T11:06:36.765Z,99539.39
2017-08-30T11:09:02.851Z,99526.13
2017-08-30T11:11:28.959Z,99520.31
2017-08-30T11:13:55.077Z,99523.62
2017-08-30T11:16:21.163Z,99522.77
2017-08-30T11:18:47.244Z,99525.12
2017-08-30T11:21:13.326Z,99521.16
2017-08-30T11:23:39.445Z,99528.34
2017-08-30T11:26:05.539Z,99524.95
2017-08-30T11:28:31.664Z,99523.96
2017-08-30T11:30:57.793Z,99523.45
2017-08-30T11:33:23.891Z,99528.66
2017-08-30T11:35:50.044Z,99518.22
2017-08-30T11:38:16.134Z,99520.89
2017-08-30T11:40:42.199Z,99514.38
2017-08-30T11:43:08.279Z,99517.08
2017-08-30T11:45:34.349Z,99528.96
2017-08-30T11:48:00.424Z,99525.25
2017-08-30T11:50:26.536Z,99524.81
2017-08-30T11:52:52.622Z,99526.70
2017-08-30T11:55:18.713Z,99524.77
2017-08-30T11:57:44.873Z,99521.88
2017-08-30T12:00:10.978Z,99516.67
2017-08-30T12:02:37.048Z,99524.91
2017-08-30T12:05:03.240Z,99527.92
2017-08-30T12:07:29.318Z,99526.55
2017-08-30T12:09:55.392Z,99532.39
2017-08-30T12:12:22.584Z,99522.30
2017-08-30T12:14:48.713Z,99520.65
2017-08-30T12:17:14.765Z,99524.94
2017-08-30T12:19:40.894Z,99526.86
2017-08-30T12:22:07.037Z,99527.41
2017-08-30T12:24:33.144Z,99522.17
2017-08-30T12:26:59.316Z,99526.20
2017-08-30T12:29:25.439Z,99512.76
2017-08-30T12:31:58.439Z,99501.98
2017-08-30T12:34:24.539Z,99489.02
2017-08-30T12:36:56.731Z,99493.38
2017-08-30T12:39:29.117Z,99488.17
2017-08-30T12:41:55.185Z,99491.73
2017-08-30T12:44:21.299Z,99485.34
2017-08-30T12:46:47.398Z,99490.23
2017-08-30T12:49:13.501Z,99481.81
2017-08-30T12:51:39.627Z,99474.65
2017-08-30T12:54:05.676Z,99462.08
2017-08-30T12:56:31.800Z,99459.85
2017-08-30T12:58:57.975Z,99462.38
2017-08-30T13:01:25.064Z,99462.89
2017-08-30T13:03:51.169Z,99455.53
2017-08-30T13:06:17.323Z,99454.47
2017-08-30T13:08:43.460Z,99448.20
2017-08-30T13:11:09.521Z,99446.05
2017-08-30T13:13:35.995Z,99446.13
2017-08-30T13:16:02.109Z,99456.16
2017-08-30T13:18:28.186Z,99461.80
2017-08-30T13:20:54.275Z,99464.17
2017-08-30T13:23:20.327Z,99460.10
2017-08-30T13:25:46.393Z,99455.03
2017-08-30T13:28:12.502Z,99463.03
2017-08-30T13:30:39.508Z,99461.03
2017-08-30T13:33:05.609Z,99453.15
2017-08-30T13:35:32.021Z,99445.73
2017-08-30T13:38:05.237Z,99448.47
2017-08-30T13:40:31.318Z,99445.49
2017-08-30T13:42:57.368Z,99447.23
2017-08-30T13:45:23.479Z,99449.46
2017-08-30T13:47:49.624Z,99446.05
2017-08-30T13:50:15.687Z,99434.91
2017-08-30T13:52:41.876Z,99432.91
2017-08-30T13:55:08.056Z,99440.31
2017-08-30T13:57:34.178Z,99441.05
2017-08-30T14:00:00.593Z,99442.50
2017-08-30T14:02:26.702Z,99448.72
2017-08-30T14:04:52.777Z,99440.97
2017-08-30T14:07:18.895Z,99442.64
2017-08-30T14:09:44.979Z,99430.34
2017-08-30T14:12:11.066Z,99421.45
2017-08-30T14:14:37.171Z,99418.24
2017-08-30T14:17:03.253Z,99416.81
2017-08-30T14:19:29.371Z,99402.41
2017-08-30T14:21:55.497Z,99409.20
2017-08-30T14:24:21.563Z,99406.16
2017-08-30T14:26:47.641Z,99415.94
2017-08-30T14:29:13.741Z,99416.34
2017-08-30T14:31:46.804Z,99421.80
2017-08-30T14:34:12.910Z,99418.08
2017-08-30T14:36:39.015Z,99412.34
2017-08-30T14:39:05.076Z,99407.71
2017-08-30T14:41:31.180Z,99401.04
2017-08-30T14:43:57.290Z,99394.61
2017-08-30T14:46:30.505Z,99380.19
2017-08-30T14:48:56.627Z,99392.87
2017-08-30T14:51:22.723Z,99390.07
2017-08-30T14:53:48.786Z,99387.45
2017-08-30T14:56:14.913Z,99389.68
2017-08-30T14:58:41.366Z,99383.24
2017-08-30T15:01:07.471Z,99381.84
2017-08-30T15:03:33.555Z,99388.17
2017-08-30T15:05:59.661Z,99378.14
2017-08-30T15:08:26.719Z,99377.17
2017-08-30T15:10:52.891Z,99379.98
2017-08-30T15:13:19.032Z,99373.19
2017-08-30T15:15:45.387Z,99374.32
2017-08-30T15:18:11.460Z,99362.61
2017-08-30T15:20:37.605Z,99359.66
2017-08-30T15:23:03.705Z,99365.64
2017-08-30T15:25:29.841Z,99360.16
2017-08-30T15:27:55.951Z,99355.25
2017-08-30T15:30:22.028Z,99339.52
2017-08-30T15:32:48.159Z,99337.09
2017-08-30T15:35:14.253Z,99338.86
2017-08-30T15:37:40.613Z,99343.22
2017-08-30T15:40:08.064Z,99340.58
2017-08-30T15:42:34.195Z,99333.34
2017-08-30T15:45:00.264Z,99329.47
2017-08-30T15:47:26.339Z,99326.61
2017-08-30T15:49:53.457Z,99315.45
2017-08-30T15:52:19.560Z,99321.52
2017-08-30T15:54:45.638Z,99314.18
2017-08-30T15:57:11.756Z,99314.53
2017-08-30T15:59:37.854Z,99312.98
2017-08-30T16:02:03.982Z,99306.21
2017-08-30T16:04:30.118Z,99303.23
2017-08-30T16:06:56.228Z,99301.63
2017-08-30T16:09:23.254Z,99301.91
2017-08-30T16:11:49.390Z,99295.94
2017-08-30T16:14:15.493Z,99291.00
2017-08-30T16:16:41.592Z,99293.95
2017-08-30T16:19:07.709Z,99283.73
2017-08-30T16:21:33.783Z,99273.24
2017-08-30T16:23:59.904Z,99272.75
2017-08-30T16:26:26.039Z,99268.73
2017-08-30T16:28:52.279Z,99270.41
2017-08-30T16:31:18.390Z,99265.82
2017-08-30T16:33:44.484Z,99265.26
2017-08-30T16:36:11.424Z,99269.55
2017-08-30T16:38:37.545Z,99262.48
2017-08-30T16:41:03.657Z,99266.55
2017-08-30T16:43:29.758Z,99263.30
2017-08-30T16:45:55.856Z,99261.16
2017-08-30T16:48:21.964Z,99264.05
2017-08-30T16:50:48.092Z,99261.13
2017-08-30T16:53:14.276Z,99265.58
2017-08-30T16:55:40.412Z,99262.01
2017-08-30T16:58:06.566Z,99248.38
2017-08-30T17:00:33.434Z,99249.33
2017-08-30T17:02:59.940Z,99251.17
2017-08-30T17:05:26.029Z,99258.44
2017-08-30T17:07:52.118Z,99252.00
2017-08-30T17:10:18.241Z,99241.67
2017-08-30T17:12:44.409Z,99242.11
2017-08-30T17:15:10.504Z,99243.18
2017-08-30T17:17:36.613Z,99246.27
2017-08-30T17:20:02.685Z,99247.49
2017-08-30T17:22:29.021Z,99242.29
2017-08-30T17:24:55.107Z,99246.16
2017-08-30T17:27:21.214Z,99242.80
2017-08-30T17:29:47.735Z,99237.20
2017-08-30T17:32:13.847Z,99235.94
2017-08-30T17:34:39.939Z,99237.14
2017-08-30T17:37:06.064Z,99246.53
2017-08-30T17:39:32.328Z,99242.06
2017-08-30T17:41:58.486Z,99245.16
2017-08-30T17:44:25.247Z,99245.97
2017-08-30T17:46:51.352Z,99240.09
2017-08-30T17:49:18.386Z,99246.53
2017-08-30T17:51:44.529Z,99243.64
2017-08-30T17:54:10.711Z,99248.53
2017-08-30T17:56:36.820Z,99255.09
2017-08-30T17:59:02.918Z,99249.58
2017-08-30T18:01:29.398Z,99246.55
2017-08-30T18:03:55.639Z,99251.84
2017-08-30T18:06:21.740Z,99246.98
2017-08-30T18:08:48.101Z,99243.97
2017-08-30T18:11:14.198Z,99252.83
2017-08-30T18:13:40.287Z,99255.77
2017-08-30T18:16:06.381Z,99261.61
2017-08-30T18:18:32.532Z,99263.17
2017-08-30T18:20:58.667Z,99271.86
2017-08-30T18:23:24.813Z,99268.22
2017-08-30T18:25:51.097Z,99276.77
2017-08-30T18:28:17.225Z,99273.98
2017-08-30T18:30:43.352Z,99277.05
2017-08-30T18:33:09.573Z,99276.70
2017-08-30T18:35:35.657Z,99277.28
2017-08-30T18:38:01.743Z,99276.09
2017-08-30T18:40:28.975Z,99266.97
2017-08-30T18:42:55.053Z,99275.03
2017-08-30T18:45:21.145Z,99268.78
2017-08-30T18:47:47.315Z,99275.81
2017-08-30T18:50:13.431Z,99276.03
2017-08-30T18:52:39.515Z,99272.83
2017-08-30T18:55:05.682Z,99273.88
2017-08-30T18:57:31.775Z,99271.61
2017-08-30T18:59:57.882Z,99272.55
2017-08-30T19:02:24.061Z,99270.84
2017-08-30T19:04:50.182Z,99270.91
2017-08-30T19:07:16.299Z,99271.73
2017-08-30T19:09:42.379Z,99270.78
2017-08-30T19:12:08.603Z,99266.24
2017-08-30T19:14:34.706Z,99276.00
2017-08-30T19:17:00.826Z,99270.26
2017-08-30T19:19:26.974Z,99271.14
2017-08-30T19:21:53.097Z,99264.74
2017-08-30T19:24:19.237Z,99269.15
2017-08-30T19:26:45.439Z,99273.45
2017-08-30T19:29:11.600Z,99270.14
2017-08-30T19:31:37.711Z,99266.06
2017-08-30T19:34:04.073Z,99266.97
2017-08-30T19:36:30.174Z,99266.80
2017-08-30T19:38:56.273Z,99265.04
2017-08-30T19:41:22.400Z,99264.00
2017-08-30T19:43:48.549Z,99257.34
2017-08-30T19:46:14.659Z,99260.41
2017-08-30T19:48:40.805Z,99264.09
2017-08-30T19:51:06.927Z,99262.18
2017-08-30T19:53:33.067Z,99257.70
2017-08-30T19:55:59.183Z,99262.17
2017-08-30T19:58:32.268Z,99260.80
2017-08-30T20:00:58.384Z,99254.64
2017-08-30T20:03:24.512Z,99255.34
2017-08-30T20:05:50.592Z,99255.62
2017-08-30T20:08:16.692Z,99252.09
2017-08-30T20:10:42.792Z,99252.93
2017-08-30T20:13:08.898Z,99252.93
2017-08-30T20:15:35.037Z,99255.47
2017-08-30T20:18:01.159Z,99251.69
2017-08-30T20:20:27.270Z,99244.89
2017-08-30T20:22:53.482Z,99245.60
2017-08-30T20:25:19.562Z,99250.22
2017-08-30T20:27:45.634Z,99249.95
2017-08-30T20:30:11.717Z,99251.78
2017-08-30T20:32:37.806Z,99252.11
2017-08-30T20:35:03.980Z,99243.80
2017-08-30T20:37:30.132Z,99247.16
2017-08-30T20:39:56.282Z,99250.79
2017-08-30T20:42:22.384Z,99246.27
2017-08-30T20:44:48.480Z,99252.89
2017-08-30T20:47:14.596Z,99255.28
2017-08-30T20:49:40.731Z,99253.89
2017-08-30T20:52:07.705Z,99261.11
2017-08-30T20:54:33.885Z,99261.43
2017-08-30T20:56:59.961Z,99261.52
2017-08-30T20:59:26.086Z,99254.71
2017-08-30T21:01:52.164Z,99255.83
2017-08-30T21:04:18.258Z,99258.75
2017-08-30T21:06:44.381Z,99256.06
2017-08-30T21:09:10.476Z,99249.41
2017-08-30T21:11:36.534Z,99240.34
2017-08-30T21:14:02.614Z,99233.27
2017-08-30T21:16:28.738Z,99236.31
2017-08-30T21:18:54.834Z,99237.34
2017-08-30T21:21:20.954Z,99235.53
2017-08-30T21:23:47.092Z,99230.38
2017-08-30T21:26:13.173Z,99227.66
2017-08-30T21:28:39.259Z,99225.36
2017-08-30T21:31:05.398Z,99230.41
2017-08-30T21:33:31.484Z,99234.19
2017-08-30T21:35:57.572Z,99232.70
2017-08-30T21:38:23.678Z,99233.61
2017-08-30T21:40:49.762Z,99228.95
2017-08-30T21:43:15.873Z,99236.66
2017-08-30T21:45:41.980Z,99238.02
2017-08-30T21:48:08.090Z,99231.47
2017-08-30T21:50:34.193Z,99223.39
2017-08-30T21:53:00.504Z,99225.89
2017-08-30T21:55:26.607Z,99221.44
2017-08-30T21:57:52.677Z,99219.97
2017-08-30T22:00:18.828Z,99212.69
2017-08-30T22:02:44.912Z,99212.84
2017-08-30T22:05:10.998Z,99204.89
2017-08-30T22:07:37.077Z,99206.44
2017-08-30T22:10:03.150Z,99207.05
2017-08-30T22:12:29.226Z,99192.80
2017-08-30T22:14:55.322Z,99191.14
2017-08-30T22:17:21.426Z,99197.25
2017-08-30T22:19:47.518Z,99198.30
2017-08-30T22:22:13.631Z,99206.81
2017-08-30T22:24:39.714Z,99199.72
2017-08-30T22:27:06.240Z,99202.32
2017-08-30T22:29:32.332Z,99204.08
2017-08-30T22:31:58.435Z,99189.69
2017-08-30T22:34:24.528Z,99191.11
2017-08-30T22:36:50.606Z,99186.14
2017-08-30T22:39:16.737Z,99184.21
2017-08-30T22:41:42.860Z,99185.15
2017-08-30T22:44:09.016Z,99175.43
2017-08-30T22:46:35.068Z,99170.19
2017-08-30T22:49:01.133Z,99164.84
2017-08-30T22:51:27.248Z,99167.63
2017-08-30T22:53:53.349Z,99161.92
2017-08-30T22:56:19.450Z,99167.53
2017-08-30T22:58:45.496Z,99175.77
2017-08-30T23:01:11.596Z,99182.73
2017-08-30T23:03:37.709Z,99195.06
2017-08-30T23:06:03.819Z,99196.09
2017-08-30T23:08:29.884Z,99205.66
2017-08-30T23:10:55.978Z,99202.65
2017-08-30T23:13:22.057Z,99202.13
2017-08-30T23:15:48.126Z,99207.13
2017-08-30T23:18:14.208Z,99210.80
2017-08-30T23:20:40.304Z,99207.01
2017-08-30T23:23:06.414Z,99209.23
2017-08-30T23:25:32.493Z,99206.78
2017-08-30T23:27:58.636Z,99212.84
2017-08-30T23:30:24.777Z,99219.21
2017-08-30T23:32:50.864Z,99210.04
2017-08-30T23:35:16.946Z,99203.66
2017-08-30T23:37:43.094Z,99199.95
2017-08-30T23:40:09.173Z,99183.27
2017-08-30T23:42:35.264Z,99174.33
2017-08-30T23:45:01.338Z,99172.30
2017-08-30T23:47:27.466Z,99178.19
2017-08-30T23:49:53.610Z,99184.58
2017-08-30T23:52:19.711Z,99185.72
2017-08-30T23:54:45.817Z,99200.23
2017-08-30T23:57:11.892Z,99186.80
2017-08-30T23:59:38.782Z,99180.61
